Terminal Aerodrome Forecast
Issued by NWS Brownsville, TX

Home | Current Version | Previous Version | Text Only | Print | Product List | Glossary On
Versions: 1 2 3 4 5 6 7 8 9 10 11 12 13 14 15 16 17 18 19 20 21 22 23 24 25
000
FTUS44 KBRO 201200 AAA
TAFBRO
TAF AMD
KBRO 201241Z 2013/2112 35012G17KT P6SM OVC006
     FM201500 36009KT P6SM OVC019
     FM202000 01009KT P6SM OVC030
     FM202300 01004KT P6SM OVC035=

USA.gov is the U.S. government's official web portal to all federal, state and local government web resources and services.